createdAt,value
2022-10-09T00:01:33.610Z,12.20
2022-10-09T00:04:02.692Z,13.40
2022-10-09T00:06:33.450Z,11.25
2022-10-09T00:09:03.115Z,12.85
2022-10-09T00:11:33.503Z,9.17
2022-10-09T00:16:32.352Z,16.45
2022-10-09T00:19:01.134Z,11.05
2022-10-09T00:21:31.227Z,11.50
2022-10-09T00:24:01.315Z,11.77
2022-10-09T00:26:31.275Z,9.80
2022-10-09T00:29:00.427Z,9.13
2022-10-09T00:31:29.271Z,10.38
2022-10-09T00:33:59.425Z,8.65
2022-10-09T00:36:28.511Z,11.05
2022-10-09T00:38:57.471Z,12.73
2022-10-09T00:41:27.853Z,11.23
2022-10-09T00:43:58.335Z,8.13
2022-10-09T00:46:35.015Z,12.02
2022-10-09T00:49:14.772Z,10.57
2022-10-09T00:51:45.227Z,14.20
2022-10-09T00:54:16.574Z,14.07
2022-10-09T00:56:45.476Z,14.18
2022-10-09T00:59:14.783Z,11.02
2022-10-09T01:01:43.788Z,13.18
2022-10-09T01:04:15.649Z,10.27
2022-10-09T01:06:56.106Z,20.00
2022-10-09T01:11:58.670Z,12.35
2022-10-09T01:14:31.543Z,18.67
2022-10-09T01:17:04.200Z,12.25
2022-10-09T01:19:47.128Z,16.30
2022-10-09T01:22:26.104Z,17.48
2022-10-09T01:24:56.591Z,17.73
2022-10-09T01:29:58.182Z,11.82
2022-10-09T01:32:29.802Z,17.98
2022-10-09T01:34:59.154Z,13.75
2022-10-09T01:37:29.341Z,19.70
2022-10-09T01:39:58.337Z,17.60
2022-10-09T01:42:29.357Z,19.45
2022-10-09T01:44:58.114Z,17.15
2022-10-09T01:47:27.194Z,16.40
2022-10-09T01:49:59.434Z,17.33
2022-10-09T01:52:41.442Z,12.93
2022-10-09T01:55:21.510Z,14.98
2022-10-09T01:57:53.978Z,14.80
2022-10-09T02:00:23.353Z,18.95
2022-10-09T02:02:53.922Z,16.15
2022-10-09T02:05:24.238Z,18.70
2022-10-09T02:07:53.204Z,40.17
2022-10-09T02:10:22.608Z,20.20
2022-10-09T02:12:55.992Z,22.92
2022-10-09T02:15:27.489Z,20.40
2022-10-09T02:18:01.657Z,24.27
2022-10-09T02:20:33.218Z,21.67
2022-10-09T02:23:03.928Z,20.35
2022-10-09T02:28:02.357Z,24.88
2022-10-09T02:30:37.019Z,19.65
2022-10-09T02:33:06.436Z,27.15
2022-10-09T02:35:35.217Z,21.60
2022-10-09T02:38:03.847Z,17.83
2022-10-09T02:40:32.159Z,18.52
2022-10-09T02:43:02.280Z,17.23
2022-10-09T02:45:30.972Z,28.42
2022-10-09T02:47:59.668Z,18.65
2022-10-09T02:50:28.295Z,20.20
2022-10-09T02:52:57.028Z,17.45
2022-10-09T02:55:25.338Z,20.42
2022-10-09T02:57:54.088Z,17.17
2022-10-09T03:00:24.287Z,20.40
2022-10-09T03:02:53.256Z,19.60
2022-10-09T03:05:22.136Z,24.58
2022-10-09T03:07:53.275Z,20.98
2022-10-09T03:10:22.508Z,22.70
2022-10-09T03:12:51.670Z,19.70
2022-10-09T03:15:20.526Z,22.38
2022-10-09T03:17:50.710Z,19.25
2022-10-09T03:20:19.468Z,22.00
2022-10-09T03:22:48.069Z,23.60
2022-10-09T03:25:17.266Z,23.77
2022-10-09T03:27:46.272Z,25.52
2022-10-09T03:30:15.488Z,26.08
2022-10-09T03:32:44.208Z,23.85
2022-10-09T03:35:14.319Z,19.48
2022-10-09T03:37:42.652Z,22.27
2022-10-09T03:40:12.079Z,30.00
2022-10-09T03:42:40.869Z,21.60
2022-10-09T03:45:10.719Z,29.83
2022-10-09T03:47:39.405Z,23.88
2022-10-09T03:50:09.073Z,24.95
2022-10-09T03:52:38.744Z,21.90
2022-10-09T03:55:08.280Z,23.90
2022-10-09T03:57:36.959Z,23.50
2022-10-09T04:00:06.511Z,21.27
2022-10-09T04:02:36.120Z,25.60
2022-10-09T04:05:05.322Z,26.05
2022-10-09T04:07:34.575Z,24.15
2022-10-09T04:10:05.190Z,26.27
2022-10-09T04:15:02.296Z,19.55
2022-10-09T04:17:31.079Z,25.83
2022-10-09T04:20:00.780Z,18.17
2022-10-09T04:22:29.434Z,19.42
2022-10-09T04:24:58.379Z,25.70
2022-10-09T04:27:28.521Z,22.80
2022-10-09T04:29:57.355Z,23.52
2022-10-09T04:32:26.191Z,18.70
2022-10-09T04:34:54.510Z,21.63
2022-10-09T04:37:23.121Z,18.33
2022-10-09T04:39:51.827Z,21.80
2022-10-09T04:42:20.524Z,14.60
2022-10-09T04:44:50.660Z,18.73
2022-10-09T04:47:19.376Z,17.35
2022-10-09T04:49:47.997Z,16.52
2022-10-09T04:52:16.645Z,18.17
2022-10-09T04:54:45.332Z,14.38
2022-10-09T04:57:14.183Z,19.85
2022-10-09T04:59:42.885Z,20.00
2022-10-09T05:02:13.008Z,21.05
2022-10-09T05:04:41.442Z,15.13
2022-10-09T05:07:10.156Z,15.88
2022-10-09T05:09:38.850Z,19.50
2022-10-09T05:12:07.634Z,17.20
2022-10-09T05:14:37.504Z,17.15
2022-10-09T05:17:14.132Z,22.95
2022-10-09T05:19:44.614Z,20.60
2022-10-09T05:24:42.042Z,21.27
2022-10-09T05:27:10.696Z,21.52
2022-10-09T05:29:39.473Z,22.42
2022-10-09T05:32:08.651Z,17.90
2022-10-09T05:34:37.311Z,22.42
2022-10-09T05:37:07.712Z,24.48
2022-10-09T05:42:07.358Z,23.40
2022-10-09T05:44:36.106Z,21.02
2022-10-09T05:47:05.005Z,22.27
2022-10-09T05:49:33.394Z,16.23
2022-10-09T05:52:02.226Z,18.33
2022-10-09T05:54:32.355Z,18.92
2022-10-09T05:57:01.067Z,17.15
2022-10-09T05:59:31.611Z,19.90
2022-10-09T06:02:00.929Z,16.27
2022-10-09T06:04:29.551Z,15.93
2022-10-09T06:06:58.471Z,15.02
2022-10-09T06:09:27.937Z,17.17
2022-10-09T06:11:58.061Z,14.13
2022-10-09T06:14:26.807Z,16.30
2022-10-09T06:16:55.413Z,12.82
2022-10-09T06:19:24.256Z,13.13
2022-10-09T06:21:52.958Z,14.52
2022-10-09T06:24:28.299Z,14.02
2022-10-09T06:27:01.386Z,13.13
2022-10-09T06:29:30.752Z,13.70
2022-10-09T06:31:59.339Z,13.63
2022-10-09T06:34:27.834Z,11.43
2022-10-09T06:36:56.537Z,14.93
2022-10-09T06:39:26.513Z,17.92
2022-10-09T06:41:55.100Z,14.00
2022-10-09T06:44:44.580Z,18.45
2022-10-09T06:47:13.257Z,17.95
2022-10-09T06:49:42.683Z,20.00
2022-10-09T06:52:11.530Z,18.15
2022-10-09T06:54:40.422Z,15.48
2022-10-09T06:57:09.171Z,15.02
2022-10-09T06:59:38.058Z,15.80
2022-10-09T07:02:08.287Z,14.63
2022-10-09T07:04:36.618Z,14.35
2022-10-09T07:07:05.311Z,18.20
2022-10-09T07:09:34.072Z,19.58
2022-10-09T07:12:02.737Z,14.63
2022-10-09T07:14:31.609Z,15.35
2022-10-09T07:17:00.353Z,19.23
2022-10-09T07:19:30.121Z,18.45
2022-10-09T07:21:58.862Z,17.33
2022-10-09T07:24:27.599Z,19.70
2022-10-09T07:26:57.521Z,16.80
2022-10-09T07:29:26.133Z,17.05
2022-10-09T07:31:54.460Z,14.95
2022-10-09T07:34:23.413Z,17.40
2022-10-09T07:36:53.611Z,15.73
2022-10-09T07:39:22.399Z,14.25
2022-10-09T07:41:52.116Z,18.70
2022-10-09T07:44:21.003Z,17.85
2022-10-09T07:46:51.120Z,13.43
2022-10-09T07:49:20.030Z,14.52
2022-10-09T07:51:48.825Z,17.98
2022-10-09T07:54:19.230Z,13.43
2022-10-09T07:59:17.764Z,12.00
2022-10-09T08:01:46.222Z,12.95
2022-10-09T08:04:14.967Z,17.27
2022-10-09T08:06:44.206Z,22.27
2022-10-09T08:09:12.808Z,17.98
2022-10-09T08:11:42.890Z,16.20
2022-10-09T08:14:18.226Z,13.93
2022-10-09T08:16:47.638Z,12.85
2022-10-09T08:19:16.626Z,16.60
2022-10-09T08:21:45.273Z,15.15
2022-10-09T08:24:14.031Z,13.60
2022-10-09T08:26:47.940Z,11.98
2022-10-09T08:29:18.681Z,12.20
2022-10-09T08:31:47.035Z,15.63
2022-10-09T08:34:15.827Z,13.23
2022-10-09T08:36:44.818Z,12.95
2022-10-09T08:39:13.583Z,18.13
2022-10-09T08:41:46.825Z,18.70
2022-10-09T08:44:19.844Z,13.02
2022-10-09T08:46:57.948Z,11.57
2022-10-09T08:49:31.921Z,15.18
2022-10-09T08:52:03.445Z,14.93
2022-10-09T08:54:35.955Z,14.77
2022-10-09T08:57:11.855Z,11.40
2022-10-09T08:59:40.730Z,11.07
2022-10-09T09:02:24.813Z,10.70
2022-10-09T09:05:01.184Z,10.48
2022-10-09T09:07:35.912Z,13.45
2022-10-09T09:10:08.013Z,10.43
2022-10-09T09:12:47.841Z,17.38
2022-10-09T09:15:31.676Z,17.80
2022-10-09T09:18:08.325Z,13.05
2022-10-09T09:20:44.589Z,12.80
2022-10-09T09:23:16.928Z,14.95
2022-10-09T09:25:46.944Z,12.35
2022-10-09T09:30:51.961Z,10.50
2022-10-09T09:33:23.820Z,16.20
2022-10-09T09:35:59.167Z,12.05
2022-10-09T09:38:28.075Z,12.32
2022-10-09T09:40:56.368Z,11.68
2022-10-09T09:43:27.669Z,13.43
2022-10-09T09:45:57.322Z,10.27
2022-10-09T09:48:34.152Z,14.80
2022-10-09T09:51:26.980Z,12.68
2022-10-09T09:53:54.875Z,13.55
2022-10-09T09:56:53.269Z,9.68
2022-10-09T09:59:35.519Z,12.02
2022-10-09T10:02:10.284Z,10.50
2022-10-09T10:04:43.168Z,9.15
2022-10-09T10:07:12.008Z,9.10
2022-10-09T10:09:40.743Z,11.23
2022-10-09T10:12:17.970Z,17.38
2022-10-09T10:14:52.191Z,13.45
2022-10-09T10:17:28.513Z,10.52
2022-10-09T10:19:57.079Z,10.75
2022-10-09T10:22:28.174Z,14.07
2022-10-09T10:24:58.454Z,12.02
2022-10-09T10:27:31.630Z,11.52
2022-10-09T10:30:04.186Z,12.40
2022-10-09T10:32:35.997Z,10.32
2022-10-09T10:35:10.423Z,9.65
2022-10-09T10:37:44.338Z,13.43
2022-10-09T10:40:16.898Z,9.88
2022-10-09T10:42:57.355Z,13.75
2022-10-09T10:45:34.700Z,9.52
2022-10-09T10:48:04.709Z,11.82
2022-10-09T10:50:39.808Z,12.52
2022-10-09T10:53:17.309Z,12.68
2022-10-09T10:55:53.249Z,13.70
2022-10-09T10:58:27.793Z,10.93
2022-10-09T11:01:13.990Z,11.85
2022-10-09T11:03:57.962Z,14.23
2022-10-09T11:06:30.533Z,16.75
2022-10-09T11:09:06.075Z,15.35
2022-10-09T11:11:40.325Z,10.57
2022-10-09T11:14:24.646Z,11.82
2022-10-09T11:17:02.617Z,15.13
2022-10-09T11:19:45.560Z,13.88
2022-10-09T11:22:26.235Z,14.27
2022-10-09T11:25:09.337Z,13.07
2022-10-09T11:27:43.998Z,11.23
2022-10-09T11:30:14.204Z,10.48
2022-10-09T11:32:58.779Z,8.85
2022-10-09T11:35:30.583Z,8.00
2022-10-09T11:38:01.769Z,13.43
2022-10-09T11:40:34.018Z,10.30
2022-10-09T11:43:10.382Z,8.20
2022-10-09T11:45:48.050Z,12.45
2022-10-09T11:48:23.842Z,7.13
2022-10-09T11:50:56.104Z,9.98
2022-10-09T11:53:26.536Z,12.75
2022-10-09T11:56:03.871Z,6.75
2022-10-09T11:58:32.948Z,6.63
2022-10-09T12:01:13.856Z,7.22
2022-10-09T12:03:44.068Z,7.18
2022-10-09T12:06:15.303Z,9.13
2022-10-09T12:08:46.003Z,4.22
2022-10-09T12:11:16.983Z,6.45
2022-10-09T12:13:49.252Z,4.88
2022-10-09T12:16:39.293Z,5.68
2022-10-09T12:19:18.524Z,9.60
2022-10-09T12:21:59.988Z,6.53
2022-10-09T12:24:32.028Z,9.20
2022-10-09T12:27:03.319Z,8.88
2022-10-09T12:29:36.126Z,8.05
2022-10-09T12:32:08.121Z,8.07
2022-10-09T12:34:39.850Z,6.63
2022-10-09T12:37:13.675Z,8.98
2022-10-09T12:39:42.638Z,7.88
2022-10-09T12:42:18.559Z,5.55
2022-10-09T12:44:48.355Z,4.57
2022-10-09T12:47:20.677Z,7.40
2022-10-09T12:50:02.368Z,7.50
2022-10-09T12:52:33.114Z,6.20
2022-10-09T12:55:03.402Z,7.72
2022-10-09T12:57:34.000Z,7.50
2022-10-09T13:00:02.786Z,6.22
2022-10-09T13:02:31.861Z,6.78
2022-10-09T13:05:02.996Z,7.43
2022-10-09T13:07:32.687Z,8.70
2022-10-09T13:10:07.271Z,7.88
2022-10-09T13:12:36.679Z,5.63
2022-10-09T13:15:07.621Z,5.30
2022-10-09T13:17:38.522Z,6.30
2022-10-09T13:23:03.553Z,7.35
2022-10-09T13:25:35.085Z,6.57
2022-10-09T13:28:04.028Z,10.93
2022-10-09T13:30:33.025Z,6.63
2022-10-09T13:33:01.806Z,5.28
2022-10-09T13:35:30.828Z,7.05
2022-10-09T13:37:59.659Z,8.18
2022-10-09T13:40:29.597Z,6.43
2022-10-09T13:45:27.659Z,7.18
2022-10-09T13:47:56.356Z,6.20
2022-10-09T13:50:25.645Z,5.53
2022-10-09T13:52:53.896Z,7.30
2022-10-09T13:55:22.713Z,11.25
2022-10-09T13:57:54.014Z,11.00
2022-10-09T14:00:22.865Z,7.43
2022-10-09T14:02:51.551Z,11.15
2022-10-09T14:05:21.646Z,6.32
2022-10-09T14:07:50.301Z,10.98
2022-10-09T14:10:23.547Z,7.75
2022-10-09T14:12:53.919Z,8.38
2022-10-09T14:15:22.638Z,7.93
2022-10-09T14:17:51.851Z,6.82
2022-10-09T14:20:20.902Z,8.33
2022-10-09T14:22:49.489Z,9.40
2022-10-09T14:25:18.501Z,9.45
2022-10-09T14:27:47.293Z,8.15
2022-10-09T14:30:17.701Z,8.10
2022-10-09T14:32:46.713Z,7.97
2022-10-09T14:35:20.553Z,10.02
2022-10-09T14:37:49.863Z,6.18
2022-10-09T14:40:18.839Z,6.68
2022-10-09T14:42:48.012Z,6.25
2022-10-09T14:45:18.358Z,6.75
2022-10-09T14:47:47.282Z,7.07
2022-10-09T14:50:16.144Z,7.30
2022-10-09T14:52:44.875Z,10.50
2022-10-09T14:55:13.789Z,12.57
2022-10-09T14:57:43.745Z,9.75
2022-10-09T15:00:14.034Z,13.02
2022-10-09T15:05:12.755Z,13.45
2022-10-09T15:07:41.294Z,10.55
2022-10-09T15:10:10.613Z,12.25
2022-10-09T15:12:39.386Z,15.95
2022-10-09T15:15:09.406Z,19.20
2022-10-09T15:17:38.402Z,13.43
2022-10-09T15:20:09.898Z,15.40
2022-10-09T15:22:38.477Z,15.95
2022-10-09T15:25:08.448Z,14.90
2022-10-09T15:27:37.240Z,15.30
2022-10-09T15:30:07.165Z,10.45
2022-10-09T15:32:35.950Z,14.48
2022-10-09T15:35:05.120Z,13.88
2022-10-09T15:37:35.016Z,18.20
2022-10-09T15:42:32.416Z,14.25
2022-10-09T15:45:01.162Z,16.10
2022-10-09T15:47:49.858Z,13.88
2022-10-09T15:50:18.756Z,15.63
2022-10-09T15:52:48.749Z,14.75
2022-10-09T15:55:18.718Z,13.25
2022-10-09T15:58:00.842Z,13.38
2022-10-09T16:00:32.414Z,16.10
2022-10-09T16:03:17.592Z,18.45
2022-10-09T16:06:14.932Z,14.95
2022-10-09T16:08:46.481Z,16.20
2022-10-09T16:11:21.729Z,21.77
2022-10-09T16:13:53.886Z,21.13
2022-10-09T16:16:24.146Z,20.08
2022-10-09T16:18:53.306Z,18.40
2022-10-09T16:21:23.433Z,19.15
2022-10-09T16:23:58.402Z,17.98
2022-10-09T16:26:29.050Z,18.60
2022-10-09T16:28:57.524Z,20.20
2022-10-09T16:31:28.253Z,16.92
2022-10-09T16:33:57.537Z,18.95
2022-10-09T16:36:26.484Z,15.70
2022-10-09T16:38:57.397Z,22.17
2022-10-09T16:41:27.146Z,19.45
2022-10-09T16:43:57.076Z,19.08
2022-10-09T16:46:27.459Z,20.92
2022-10-09T16:51:28.535Z,24.08
2022-10-09T16:54:00.105Z,21.92
2022-10-09T16:56:30.897Z,22.20
2022-10-09T16:59:01.071Z,25.60
2022-10-09T17:01:29.946Z,19.02
2022-10-09T17:04:00.316Z,21.27
2022-10-09T17:06:29.399Z,23.27
2022-10-09T17:09:00.536Z,20.40
2022-10-09T17:11:32.569Z,23.48
2022-10-09T17:14:01.636Z,24.50
2022-10-09T17:16:32.848Z,26.70
2022-10-09T17:19:02.148Z,22.23
2022-10-09T17:21:34.264Z,28.02
2022-10-09T17:24:06.050Z,26.58
2022-10-09T17:26:35.933Z,31.55
2022-10-09T17:29:05.562Z,32.97
2022-10-09T17:31:34.211Z,31.70
2022-10-09T17:34:05.160Z,33.35
2022-10-09T17:36:35.518Z,34.10
2022-10-09T17:39:07.233Z,33.65
2022-10-09T17:41:36.219Z,34.67
2022-10-09T17:44:05.479Z,32.53
2022-10-09T17:46:33.878Z,35.15
2022-10-09T17:49:02.593Z,31.85
2022-10-09T17:51:33.776Z,31.70
2022-10-09T17:54:10.958Z,34.88
2022-10-09T17:56:41.222Z,34.47
2022-10-09T17:59:10.567Z,40.42
2022-10-09T18:01:39.443Z,38.60
2022-10-09T18:04:08.242Z,40.85
2022-10-09T18:06:37.325Z,36.17
2022-10-09T18:09:07.544Z,40.00
2022-10-09T18:11:36.333Z,35.25
2022-10-09T18:14:05.022Z,45.08
2022-10-09T18:16:38.021Z,41.92
2022-10-09T18:19:11.422Z,37.28
2022-10-09T18:21:41.916Z,30.85
2022-10-09T18:24:12.809Z,34.40
2022-10-09T18:26:41.922Z,42.55
2022-10-09T18:29:10.777Z,39.67
2022-10-09T18:31:39.184Z,44.63
2022-10-09T18:34:08.140Z,37.30
2022-10-09T18:36:36.897Z,41.17
2022-10-09T18:39:07.701Z,43.08
2022-10-09T18:41:38.505Z,41.08
2022-10-09T18:44:09.792Z,44.13
2022-10-09T18:46:41.128Z,38.78
2022-10-09T18:49:11.520Z,41.95
2022-10-09T18:51:41.172Z,43.80
2022-10-09T18:54:15.678Z,37.37
2022-10-09T18:56:48.114Z,43.97
2022-10-09T18:59:20.673Z,38.83
2022-10-09T19:01:50.153Z,42.25
2022-10-09T19:04:19.198Z,47.58
2022-10-09T19:06:49.272Z,36.50
2022-10-09T19:09:18.049Z,39.30
2022-10-09T19:11:48.542Z,44.65
2022-10-09T19:16:45.506Z,40.42
2022-10-09T19:19:14.417Z,40.25
2022-10-09T19:21:44.076Z,39.80
2022-10-09T19:24:13.437Z,44.38
2022-10-09T19:26:42.545Z,41.80
2022-10-09T19:29:12.783Z,45.20
2022-10-09T19:31:41.078Z,49.90
2022-10-09T19:34:09.784Z,40.78
2022-10-09T19:36:38.529Z,44.55
2022-10-09T19:39:08.134Z,46.13
2022-10-09T19:41:37.150Z,42.87
2022-10-09T19:44:05.853Z,40.40
2022-10-09T19:46:37.725Z,42.20
2022-10-09T19:49:07.015Z,50.85
2022-10-09T19:51:36.886Z,42.80
2022-10-09T19:54:06.739Z,40.80
2022-10-09T19:56:36.411Z,39.50
2022-10-09T19:59:08.018Z,44.20
2022-10-09T20:01:40.420Z,40.40
2022-10-09T20:04:11.520Z,45.45
2022-10-09T20:06:41.743Z,49.90
2022-10-09T20:09:14.406Z,38.90
2022-10-09T20:11:43.371Z,40.08
2022-10-09T20:14:12.286Z,37.95
2022-10-09T20:16:42.140Z,40.17
2022-10-09T20:21:39.703Z,46.42
2022-10-09T20:24:08.902Z,44.17
2022-10-09T20:26:42.852Z,42.58
2022-10-09T20:29:12.239Z,50.33
2022-10-09T20:31:42.602Z,46.47
2022-10-09T20:34:11.392Z,46.72
2022-10-09T20:36:40.321Z,50.42
2022-10-09T20:39:11.879Z,46.88
2022-10-09T20:41:41.263Z,46.85
2022-10-09T20:44:10.509Z,44.20
2022-10-09T20:46:41.484Z,51.97
2022-10-09T20:49:13.626Z,46.90
2022-10-09T20:51:42.626Z,52.78
2022-10-09T20:54:21.310Z,44.38
2022-10-09T20:56:50.914Z,44.92
2022-10-09T20:59:19.939Z,50.05
2022-10-09T21:01:49.856Z,43.17
2022-10-09T21:04:18.650Z,52.25
2022-10-09T21:06:47.332Z,46.97
2022-10-09T21:09:16.206Z,44.83
2022-10-09T21:11:45.912Z,46.92
2022-10-09T21:14:14.743Z,44.58
2022-10-09T21:16:43.094Z,40.95
2022-10-09T21:19:13.379Z,46.25
2022-10-09T21:21:42.312Z,49.55
2022-10-09T21:24:11.003Z,48.10
2022-10-09T21:26:40.991Z,39.35
2022-10-09T21:29:12.766Z,48.42
2022-10-09T21:34:10.105Z,47.13
2022-10-09T21:36:56.183Z,46.30
2022-10-09T21:39:31.060Z,51.70
2022-10-09T21:41:59.837Z,49.70
2022-10-09T21:44:28.819Z,51.83
2022-10-09T21:46:57.752Z,59.65
2022-10-09T21:49:27.882Z,56.25
2022-10-09T21:51:58.275Z,57.58
2022-10-09T21:56:56.089Z,47.35
2022-10-09T21:59:24.977Z,49.50
2022-10-09T22:01:53.771Z,53.15
2022-10-09T22:04:22.778Z,53.20
2022-10-09T22:06:51.594Z,57.20
2022-10-09T22:09:21.929Z,56.58
2022-10-09T22:11:50.622Z,51.17
2022-10-09T22:14:19.300Z,58.53
2022-10-09T22:16:47.676Z,61.33
2022-10-09T22:19:16.418Z,62.72
2022-10-09T22:21:45.164Z,60.40
2022-10-09T22:24:13.874Z,50.47
2022-10-09T22:26:43.956Z,57.33
2022-10-09T22:29:12.678Z,53.42
2022-10-09T22:31:41.162Z,54.97
2022-10-09T22:34:10.577Z,54.28
2022-10-09T22:36:39.285Z,50.30
2022-10-09T22:39:08.903Z,50.50
2022-10-09T22:41:37.699Z,51.05
2022-10-09T22:44:09.609Z,54.40
2022-10-09T22:46:39.348Z,49.00
2022-10-09T22:49:09.496Z,53.75
2022-10-09T22:51:38.137Z,45.45
2022-10-09T22:54:07.171Z,48.78
2022-10-09T22:56:38.984Z,54.72
2022-10-09T22:59:10.082Z,53.42
2022-10-09T23:01:40.307Z,48.50
2022-10-09T23:04:12.014Z,45.92
2022-10-09T23:06:41.934Z,52.20
2022-10-09T23:09:14.315Z,43.30
2022-10-09T23:11:43.394Z,40.05
2022-10-09T23:14:14.186Z,46.35
2022-10-09T23:19:11.504Z,53.95
2022-10-09T23:21:42.135Z,50.25
2022-10-09T23:24:12.718Z,46.33
2022-10-09T23:26:41.542Z,51.00
2022-10-09T23:29:18.289Z,53.63
2022-10-09T23:31:46.847Z,53.53
2022-10-09T23:34:16.138Z,59.42
2022-10-09T23:36:45.001Z,57.08
2022-10-09T23:39:14.168Z,60.58
2022-10-09T23:41:43.021Z,59.03
2022-10-09T23:44:11.778Z,58.13
2022-10-09T23:46:42.001Z,53.42
2022-10-09T23:49:11.627Z,48.97
2022-10-09T23:51:40.557Z,50.30
2022-10-09T23:54:09.963Z,57.63
2022-10-09T23:56:38.677Z,48.22
2022-10-09T23:59:09.935Z,42.90
